createdAt,value
2023-10-31T00:00:59.719Z,9.63
2023-10-31T00:04:01.796Z,7.70
2023-10-31T00:07:04.207Z,8.48
2023-10-31T00:10:06.403Z,10.52
2023-10-31T00:13:08.412Z,9.23
2023-10-31T00:16:10.511Z,11.88
2023-10-31T00:19:12.514Z,8.82
2023-10-31T00:22:14.559Z,13.38
2023-10-31T00:25:16.665Z,8.77
2023-10-31T00:28:18.804Z,10.53
2023-10-31T00:31:20.951Z,8.63
2023-10-31T00:34:23.178Z,8.75
2023-10-31T00:37:25.282Z,12.18
2023-10-31T00:40:27.407Z,10.82
2023-10-31T00:43:29.437Z,14.87
2023-10-31T00:46:31.463Z,13.07
2023-10-31T00:49:33.486Z,12.90
2023-10-31T00:52:35.646Z,14.23
2023-10-31T00:55:38.778Z,18.08
2023-10-31T00:58:40.980Z,20.00
2023-10-31T01:01:43.881Z,18.35
2023-10-31T01:04:46.600Z,15.70
2023-10-31T01:07:48.663Z,15.60
2023-10-31T01:10:50.780Z,12.85
2023-10-31T01:13:54.008Z,13.77
2023-10-31T01:16:56.069Z,10.00
2023-10-31T01:19:58.146Z,12.90
2023-10-31T01:23:00.260Z,12.35
2023-10-31T01:26:02.420Z,13.35
2023-10-31T01:29:04.561Z,14.23
2023-10-31T01:32:13.260Z,11.25
2023-10-31T01:35:19.385Z,15.68
2023-10-31T01:38:21.677Z,8.18
2023-10-31T01:41:23.718Z,10.18
2023-10-31T01:44:25.829Z,8.00
2023-10-31T01:47:27.893Z,9.05
2023-10-31T01:50:30.098Z,12.02
2023-10-31T01:53:34.460Z,9.35
2023-10-31T01:56:36.720Z,8.23
2023-10-31T01:59:38.737Z,8.23
2023-10-31T02:02:42.774Z,11.00
2023-10-31T02:05:44.991Z,9.98
2023-10-31T02:08:48.230Z,8.85
2023-10-31T02:11:50.266Z,6.90
2023-10-31T02:14:52.305Z,9.67
2023-10-31T02:17:54.532Z,10.13
2023-10-31T02:20:56.594Z,10.10
2023-10-31T02:24:04.464Z,10.38
2023-10-31T02:27:06.449Z,7.97
2023-10-31T02:30:09.087Z,8.30
2023-10-31T02:33:11.331Z,10.00
2023-10-31T02:36:13.369Z,7.65
2023-10-31T02:39:15.461Z,9.90
2023-10-31T02:42:17.499Z,23.15
2023-10-31T02:45:19.842Z,9.83
2023-10-31T02:48:22.001Z,8.63
2023-10-31T02:51:24.067Z,9.95
2023-10-31T02:54:26.123Z,8.70
2023-10-31T02:57:28.244Z,10.57
2023-10-31T03:00:30.242Z,9.73
2023-10-31T03:03:32.353Z,10.80
2023-10-31T03:06:34.416Z,12.23
2023-10-31T03:09:36.494Z,8.48
2023-10-31T03:12:39.164Z,10.07
2023-10-31T03:15:41.194Z,10.93
2023-10-31T03:18:43.308Z,10.43
2023-10-31T03:21:45.318Z,12.25
2023-10-31T03:24:47.381Z,10.85
2023-10-31T03:27:49.430Z,11.00
2023-10-31T03:30:52.178Z,17.30
2023-10-31T03:33:54.994Z,8.40
2023-10-31T03:36:57.050Z,9.52
2023-10-31T03:39:59.041Z,8.73
2023-10-31T03:43:01.107Z,10.43
2023-10-31T03:46:03.238Z,10.07
2023-10-31T03:49:05.304Z,10.15
2023-10-31T03:52:08.138Z,8.23
2023-10-31T03:55:10.204Z,8.73
2023-10-31T03:58:12.336Z,11.88
2023-10-31T04:01:14.377Z,8.57
2023-10-31T04:04:16.448Z,9.63
2023-10-31T04:07:19.300Z,11.82
2023-10-31T04:10:21.542Z,11.20
2023-10-31T04:13:23.546Z,8.90
2023-10-31T04:16:25.814Z,10.23
2023-10-31T04:19:27.923Z,12.82
2023-10-31T04:22:29.959Z,8.00
2023-10-31T04:25:32.041Z,9.10
2023-10-31T04:28:34.075Z,8.02
2023-10-31T04:31:43.599Z,8.87
2023-10-31T04:34:46.461Z,9.68
2023-10-31T04:37:48.603Z,8.52
2023-10-31T04:40:50.685Z,8.88
2023-10-31T04:43:52.775Z,9.90
2023-10-31T04:46:54.960Z,11.30
2023-10-31T04:49:57.297Z,13.30
2023-10-31T04:52:59.366Z,12.98
2023-10-31T04:56:01.721Z,11.93
2023-10-31T04:59:04.092Z,10.20
2023-10-31T05:02:06.186Z,9.60
2023-10-31T05:05:08.515Z,8.82
2023-10-31T05:08:10.650Z,9.48
2023-10-31T05:11:12.741Z,7.72
2023-10-31T05:14:14.908Z,7.53
2023-10-31T05:17:16.978Z,9.27
2023-10-31T05:20:19.102Z,9.23
2023-10-31T05:23:21.216Z,11.30
2023-10-31T05:26:23.477Z,7.85
2023-10-31T05:29:25.515Z,10.13
2023-10-31T05:32:27.566Z,9.83
2023-10-31T05:35:29.644Z,9.07
2023-10-31T05:38:31.678Z,8.10
2023-10-31T05:41:36.520Z,6.97
2023-10-31T05:44:38.717Z,10.65
2023-10-31T05:47:40.797Z,7.53
2023-10-31T05:50:43.475Z,10.40
2023-10-31T05:53:46.622Z,8.30
2023-10-31T05:56:48.730Z,7.35
2023-10-31T05:59:50.846Z,5.95
2023-10-31T06:02:52.891Z,11.53
2023-10-31T06:05:54.914Z,6.93
2023-10-31T06:08:56.943Z,7.55
2023-10-31T06:11:58.975Z,6.78
2023-10-31T06:15:00.983Z,8.25
2023-10-31T06:18:04.153Z,7.57
2023-10-31T06:21:06.286Z,7.38
2023-10-31T06:24:09.098Z,7.53
2023-10-31T06:27:11.199Z,11.82
2023-10-31T06:33:18.351Z,6.30
2023-10-31T06:36:20.442Z,10.68
2023-10-31T06:39:23.745Z,7.35
2023-10-31T06:42:25.919Z,7.45
2023-10-31T06:45:28.006Z,8.27
2023-10-31T06:48:30.006Z,8.63
2023-10-31T06:51:32.092Z,10.48
2023-10-31T06:54:35.793Z,4.70
2023-10-31T06:57:37.959Z,7.45
2023-10-31T07:00:40.107Z,6.85
2023-10-31T07:03:42.210Z,11.23
2023-10-31T07:06:44.272Z,8.57
2023-10-31T07:09:46.290Z,11.27
2023-10-31T07:12:48.267Z,8.13
2023-10-31T07:15:50.679Z,9.93
2023-10-31T07:18:52.703Z,7.80
2023-10-31T07:21:55.628Z,7.53
2023-10-31T07:24:58.777Z,10.52
2023-10-31T07:28:00.858Z,6.63
2023-10-31T07:31:02.978Z,11.52
2023-10-31T07:34:05.191Z,6.97
2023-10-31T07:37:07.237Z,7.97
2023-10-31T07:40:09.708Z,7.65
2023-10-31T07:43:11.710Z,6.00
2023-10-31T07:46:13.847Z,8.05
2023-10-31T07:49:15.907Z,6.90
2023-10-31T07:52:17.917Z,9.60
2023-10-31T07:55:20.433Z,8.90
2023-10-31T07:58:22.505Z,9.70
2023-10-31T08:01:24.634Z,10.35
2023-10-31T08:04:26.786Z,7.53
2023-10-31T08:07:31.265Z,6.47
2023-10-31T08:10:35.493Z,5.47
2023-10-31T08:13:38.326Z,7.05
2023-10-31T08:16:40.526Z,7.85
2023-10-31T08:19:43.598Z,11.40
2023-10-31T08:22:46.290Z,7.70
2023-10-31T08:25:48.345Z,6.28
2023-10-31T08:28:50.380Z,6.13
2023-10-31T08:31:52.463Z,6.03
2023-10-31T08:34:55.480Z,8.40
2023-10-31T08:37:57.592Z,8.05
2023-10-31T08:41:00.215Z,8.48
2023-10-31T08:44:04.853Z,7.72
2023-10-31T08:47:07.807Z,7.93
2023-10-31T08:50:09.956Z,9.43
2023-10-31T08:53:12.327Z,10.77
2023-10-31T08:56:14.518Z,6.95
2023-10-31T08:59:16.689Z,9.75
2023-10-31T09:02:18.830Z,10.68
2023-10-31T09:05:20.989Z,11.23
2023-10-31T09:08:23.007Z,13.18
2023-10-31T09:11:25.093Z,9.77
2023-10-31T09:14:27.212Z,11.25
2023-10-31T09:17:29.290Z,9.00
2023-10-31T09:20:31.403Z,11.57
2023-10-31T09:23:34.840Z,11.23
2023-10-31T09:26:36.925Z,9.93
2023-10-31T09:29:39.668Z,10.35
2023-10-31T09:32:41.952Z,11.82
2023-10-31T09:35:44.619Z,9.23
2023-10-31T09:38:46.645Z,10.65
2023-10-31T09:41:49.516Z,11.43
2023-10-31T09:44:52.793Z,8.95
2023-10-31T09:47:55.094Z,10.45
2023-10-31T09:50:57.790Z,8.73
2023-10-31T09:54:00.558Z,9.85
2023-10-31T09:57:02.558Z,10.35
2023-10-31T10:00:04.829Z,10.63
2023-10-31T10:03:12.052Z,11.13
2023-10-31T10:06:14.501Z,8.73
2023-10-31T10:09:16.608Z,7.20
2023-10-31T10:12:18.845Z,11.15
2023-10-31T10:15:21.030Z,9.40
2023-10-31T10:18:26.839Z,9.65
2023-10-31T10:21:28.880Z,10.80
2023-10-31T10:24:31.028Z,9.25
2023-10-31T10:27:33.052Z,9.43
2023-10-31T10:30:36.590Z,9.52
2023-10-31T10:33:40.219Z,11.18
2023-10-31T10:36:46.773Z,10.33
2023-10-31T10:39:49.113Z,15.00
2023-10-31T10:42:51.945Z,11.73
2023-10-31T10:45:57.861Z,8.25
2023-10-31T10:49:01.213Z,10.38
2023-10-31T10:52:11.896Z,8.17
2023-10-31T10:55:17.843Z,12.60
2023-10-31T10:58:25.058Z,17.45
2023-10-31T11:01:29.077Z,15.27
2023-10-31T11:04:31.178Z,17.77
2023-10-31T11:07:33.929Z,17.77
2023-10-31T11:10:36.770Z,13.85
2023-10-31T11:13:39.260Z,18.85
2023-10-31T11:16:44.249Z,17.88
2023-10-31T11:19:46.494Z,16.25
2023-10-31T11:22:52.623Z,15.83
2023-10-31T11:25:55.943Z,14.55
2023-10-31T11:29:04.535Z,41.67
2023-10-31T11:32:10.437Z,58.28
2023-10-31T11:35:13.345Z,24.83
2023-10-31T11:38:15.495Z,28.07
2023-10-31T11:41:17.587Z,31.10
2023-10-31T11:44:23.231Z,23.05
2023-10-31T11:47:25.412Z,19.20
2023-10-31T11:50:27.621Z,18.95
2023-10-31T11:53:29.755Z,17.70
2023-10-31T11:56:31.890Z,26.08
2023-10-31T11:59:38.268Z,21.85
2023-10-31T12:02:40.403Z,19.48
2023-10-31T12:05:51.653Z,11.98
2023-10-31T12:08:53.706Z,38.00
2023-10-31T12:11:55.935Z,26.67
2023-10-31T12:15:05.327Z,16.02
2023-10-31T12:18:07.408Z,14.27
2023-10-31T12:21:12.067Z,14.95
2023-10-31T12:24:15.116Z,15.40
2023-10-31T12:27:17.153Z,18.45
2023-10-31T12:30:21.460Z,21.30
2023-10-31T12:33:26.149Z,20.08
2023-10-31T12:36:29.093Z,16.52
2023-10-31T12:39:31.488Z,18.37
2023-10-31T12:42:34.145Z,20.00
2023-10-31T12:45:36.532Z,18.35
2023-10-31T12:48:38.907Z,17.70
2023-10-31T12:51:55.814Z,14.65
2023-10-31T12:54:57.885Z,14.77
2023-10-31T12:58:00.006Z,13.90
2023-10-31T13:01:02.319Z,10.80
2023-10-31T13:04:05.391Z,9.95
2023-10-31T13:07:09.089Z,19.48
2023-10-31T13:10:11.448Z,10.97
2023-10-31T13:13:13.997Z,9.80
2023-10-31T13:16:16.231Z,15.52
2023-10-31T13:19:18.847Z,12.25
2023-10-31T13:22:20.895Z,11.52
2023-10-31T13:25:22.966Z,13.27
2023-10-31T13:28:24.971Z,14.18
2023-10-31T13:31:27.379Z,16.40
2023-10-31T13:34:32.924Z,15.55
2023-10-31T13:37:36.101Z,18.15
2023-10-31T13:40:38.215Z,15.47
2023-10-31T13:43:40.218Z,12.88
2023-10-31T13:46:42.277Z,8.30
2023-10-31T13:49:44.410Z,6.13
2023-10-31T13:52:46.472Z,5.28
2023-10-31T13:55:48.478Z,4.23
2023-10-31T13:58:50.750Z,3.85
2023-10-31T14:01:52.970Z,3.40
2023-10-31T14:04:55.159Z,2.92
2023-10-31T14:07:57.314Z,2.70
2023-10-31T14:10:59.398Z,3.90
2023-10-31T14:14:04.526Z,4.78
2023-10-31T14:17:06.625Z,3.95
2023-10-31T14:20:09.166Z,3.10
2023-10-31T14:23:11.229Z,3.50
2023-10-31T14:26:14.207Z,4.80
2023-10-31T14:29:16.273Z,3.28
2023-10-31T14:32:18.478Z,3.30
2023-10-31T14:35:20.625Z,5.05
2023-10-31T14:38:22.694Z,4.30
2023-10-31T14:41:25.615Z,3.60
2023-10-31T14:44:27.696Z,7.00
2023-10-31T14:47:29.769Z,4.93
2023-10-31T14:50:31.931Z,18.85
2023-10-31T14:53:34.214Z,6.30
2023-10-31T14:56:37.935Z,4.07
2023-10-31T14:59:41.145Z,4.20
2023-10-31T15:02:43.409Z,3.20
2023-10-31T15:05:45.520Z,5.03
2023-10-31T15:08:47.533Z,3.63
2023-10-31T15:11:49.626Z,3.40
2023-10-31T15:14:51.715Z,5.57
2023-10-31T15:17:53.870Z,2.78
2023-10-31T15:20:58.515Z,5.53
2023-10-31T15:24:00.654Z,4.72
2023-10-31T15:27:02.780Z,3.43
2023-10-31T15:30:06.084Z,3.83
2023-10-31T15:33:08.387Z,2.78
2023-10-31T15:36:14.612Z,2.92
2023-10-31T15:39:18.123Z,4.35
2023-10-31T15:42:20.353Z,4.40
2023-10-31T15:45:22.648Z,5.38
2023-10-31T15:48:26.747Z,5.22
2023-10-31T15:51:30.548Z,3.88
2023-10-31T15:54:33.869Z,4.57
2023-10-31T15:57:36.048Z,5.13
2023-10-31T16:00:38.054Z,4.90
2023-10-31T16:03:40.150Z,5.28
2023-10-31T16:06:42.246Z,3.38
2023-10-31T16:09:44.890Z,3.88
2023-10-31T16:12:47.114Z,4.37
2023-10-31T16:15:50.978Z,4.43
2023-10-31T16:18:53.589Z,4.20
2023-10-31T16:21:55.785Z,6.78
2023-10-31T16:24:58.129Z,6.35
2023-10-31T16:28:00.185Z,6.33
2023-10-31T16:31:02.236Z,6.28
2023-10-31T16:34:04.394Z,4.90
2023-10-31T16:37:06.444Z,6.22
2023-10-31T16:40:08.871Z,8.63
2023-10-31T16:43:10.922Z,6.00
2023-10-31T16:46:13.150Z,4.20
2023-10-31T16:49:15.352Z,4.30
2023-10-31T16:52:17.398Z,4.70
2023-10-31T16:55:19.574Z,5.72
2023-10-31T16:58:21.729Z,4.60
2023-10-31T17:01:23.932Z,4.57
2023-10-31T17:04:26.007Z,3.80
2023-10-31T17:07:28.031Z,3.67
2023-10-31T17:10:30.368Z,3.38
2023-10-31T17:13:34.777Z,3.87
2023-10-31T17:16:36.928Z,5.55
2023-10-31T17:19:38.973Z,7.00
2023-10-31T17:22:41.533Z,6.80
2023-10-31T17:25:43.645Z,5.63
2023-10-31T17:28:45.642Z,7.43
2023-10-31T17:31:47.699Z,4.68
2023-10-31T17:34:49.783Z,5.38
2023-10-31T17:37:51.862Z,4.82
2023-10-31T17:40:55.665Z,8.30
2023-10-31T17:43:57.766Z,5.60
2023-10-31T17:46:59.832Z,5.30
2023-10-31T17:50:01.845Z,4.80
2023-10-31T17:53:04.712Z,5.40
2023-10-31T17:56:07.469Z,4.63
2023-10-31T17:59:10.216Z,4.33
2023-10-31T18:02:12.403Z,5.57
2023-10-31T18:05:14.759Z,4.32
2023-10-31T18:08:16.860Z,4.45
2023-10-31T18:11:19.012Z,3.65
2023-10-31T18:14:21.635Z,3.57
2023-10-31T18:17:23.768Z,3.70
2023-10-31T18:20:25.987Z,4.43
2023-10-31T18:23:31.168Z,3.17
2023-10-31T18:26:33.307Z,4.57
2023-10-31T18:29:35.460Z,4.03
2023-10-31T18:32:37.678Z,4.18
2023-10-31T18:35:39.831Z,4.78
2023-10-31T18:38:41.923Z,4.47
2023-10-31T18:41:55.755Z,4.55
2023-10-31T18:45:05.464Z,3.57
2023-10-31T18:48:07.555Z,4.20
2023-10-31T18:51:10.661Z,3.90
2023-10-31T18:54:12.747Z,3.78
2023-10-31T18:57:14.841Z,4.60
2023-10-31T19:00:17.025Z,3.27
2023-10-31T19:03:19.154Z,7.50
2023-10-31T19:06:21.429Z,4.88
2023-10-31T19:09:24.017Z,12.45
2023-10-31T19:12:26.122Z,9.77
2023-10-31T19:15:29.822Z,6.27
2023-10-31T19:18:31.878Z,10.98
2023-10-31T19:21:35.903Z,9.85
2023-10-31T19:24:37.973Z,11.48
2023-10-31T19:27:40.028Z,10.40
2023-10-31T19:30:42.514Z,10.20
2023-10-31T19:33:44.693Z,8.43
2023-10-31T19:36:46.776Z,7.00
2023-10-31T19:39:48.877Z,6.40
2023-10-31T19:42:50.960Z,6.05
2023-10-31T19:45:53.022Z,6.10
2023-10-31T19:48:57.977Z,5.47
2023-10-31T19:52:00.023Z,6.28
2023-10-31T19:55:02.112Z,5.63
2023-10-31T19:58:04.170Z,4.90
2023-10-31T20:01:06.183Z,9.50
2023-10-31T20:04:08.249Z,5.78
2023-10-31T20:07:10.396Z,5.20
2023-10-31T20:10:12.562Z,5.43
2023-10-31T20:13:16.072Z,4.18
2023-10-31T20:16:19.103Z,5.20
2023-10-31T20:19:21.340Z,5.43
2023-10-31T20:22:23.414Z,4.70
2023-10-31T20:25:25.488Z,5.28
2023-10-31T20:28:27.697Z,11.70
2023-10-31T20:31:29.742Z,6.33
2023-10-31T20:34:31.742Z,7.25
2023-10-31T20:37:33.822Z,8.98
2023-10-31T20:40:36.437Z,6.10
2023-10-31T20:43:38.612Z,6.82
2023-10-31T20:46:41.513Z,8.47
2023-10-31T20:49:43.586Z,8.27
2023-10-31T20:52:45.690Z,9.85
2023-10-31T20:55:47.683Z,6.50
2023-10-31T20:58:49.730Z,7.38
2023-10-31T21:01:51.835Z,8.57
2023-10-31T21:04:56.333Z,6.45
2023-10-31T21:07:58.665Z,8.00
2023-10-31T21:11:00.813Z,6.70
2023-10-31T21:14:04.098Z,7.72
2023-10-31T21:17:06.270Z,6.63
2023-10-31T21:20:09.021Z,7.15
2023-10-31T21:23:11.073Z,6.05
2023-10-31T21:26:13.253Z,7.47
2023-10-31T21:29:15.340Z,6.13
2023-10-31T21:32:17.442Z,7.97
2023-10-31T21:35:19.539Z,5.40
2023-10-31T21:38:21.667Z,6.05
2023-10-31T21:41:24.291Z,5.47
2023-10-31T21:44:28.896Z,6.50
2023-10-31T21:47:30.987Z,8.33
2023-10-31T21:50:33.425Z,8.60
2023-10-31T21:53:35.754Z,6.47
2023-10-31T21:56:37.834Z,5.38
2023-10-31T21:59:39.948Z,8.73
2023-10-31T22:02:42.172Z,7.77
2023-10-31T22:05:44.401Z,6.53
2023-10-31T22:08:46.513Z,8.38
2023-10-31T22:11:48.592Z,7.70
2023-10-31T22:14:50.658Z,8.02
2023-10-31T22:17:52.783Z,6.50
2023-10-31T22:20:55.083Z,6.30
2023-10-31T22:23:57.410Z,6.95
2023-10-31T22:26:59.664Z,7.32
2023-10-31T22:30:01.774Z,8.30
2023-10-31T22:33:04.528Z,8.43
2023-10-31T22:36:06.799Z,10.25
2023-10-31T22:39:08.981Z,7.47
2023-10-31T22:42:11.203Z,8.38
2023-10-31T22:45:13.341Z,10.95
2023-10-31T22:48:15.482Z,7.90
2023-10-31T22:51:17.592Z,8.95
2023-10-31T22:54:19.672Z,14.02
2023-10-31T22:57:21.690Z,7.60
2023-10-31T23:00:27.821Z,7.88
2023-10-31T23:03:30.476Z,8.70
2023-10-31T23:06:33.409Z,8.85
2023-10-31T23:09:35.609Z,9.40
2023-10-31T23:12:37.711Z,11.30
2023-10-31T23:15:40.268Z,8.70
2023-10-31T23:18:42.326Z,8.73
2023-10-31T23:21:44.346Z,10.60
2023-10-31T23:24:46.847Z,9.40
2023-10-31T23:27:48.977Z,8.25
2023-10-31T23:30:56.762Z,7.25
2023-10-31T23:34:00.673Z,9.63
2023-10-31T23:37:02.746Z,8.60
2023-10-31T23:40:05.266Z,7.93
2023-10-31T23:43:07.320Z,6.85
2023-10-31T23:46:09.356Z,8.57
2023-10-31T23:49:11.462Z,7.00
2023-10-31T23:52:13.515Z,8.63
2023-10-31T23:55:16.045Z,8.00
2023-10-31T23:58:18.197Z,7.10
